createdAt,value
2023-09-26T00:00:25.018Z,99.99
2023-09-26T00:01:25.282Z,99.99
2023-09-26T00:02:24.771Z,99.99
2023-09-26T00:03:24.832Z,99.99
2023-09-26T00:04:25.466Z,99.99
2023-09-26T00:05:25.297Z,99.99
2023-09-26T00:06:25.256Z,99.99
2023-09-26T00:07:24.697Z,99.99
2023-09-26T00:08:24.737Z,99.99
2023-09-26T00:09:24.691Z,99.99
2023-09-26T00:10:24.712Z,99.99
2023-09-26T00:11:24.655Z,99.99
2023-09-26T00:12:24.670Z,99.99
2023-09-26T00:13:24.705Z,99.99
2023-09-26T00:14:24.646Z,99.99
2023-09-26T00:15:24.633Z,99.99
2023-09-26T00:16:24.725Z,99.99
2023-09-26T00:17:24.614Z,99.99
2023-09-26T00:18:24.586Z,99.99
2023-09-26T00:19:24.592Z,99.99
2023-09-26T00:20:24.567Z,99.99
2023-09-26T00:21:24.580Z,99.99
2023-09-26T00:22:24.618Z,99.99
2023-09-26T00:23:24.546Z,99.99
2023-09-26T00:24:24.546Z,99.99
2023-09-26T00:25:24.604Z,99.99
2023-09-26T00:26:24.521Z,99.99
2023-09-26T00:27:24.529Z,99.99
2023-09-26T00:28:24.594Z,99.99
2023-09-26T00:29:24.469Z,99.99
2023-09-26T00:30:24.467Z,99.99
2023-09-26T00:31:24.525Z,99.99
2023-09-26T00:32:24.477Z,99.99
2023-09-26T00:33:24.452Z,99.99
2023-09-26T00:34:24.445Z,99.99
2023-09-26T00:35:24.410Z,99.99
2023-09-26T00:36:24.429Z,99.99
2023-09-26T00:37:24.590Z,99.99
2023-09-26T00:38:24.467Z,99.99
2023-09-26T00:39:24.368Z,99.99
2023-09-26T00:40:24.461Z,99.99
2023-09-26T00:41:24.346Z,99.99
2023-09-26T00:42:24.345Z,99.99
2023-09-26T00:43:24.370Z,99.99
2023-09-26T00:44:24.334Z,99.99
2023-09-26T00:45:24.323Z,99.99
2023-09-26T00:46:24.342Z,99.99
2023-09-26T00:47:24.282Z,99.99
2023-09-26T00:48:24.283Z,99.99
2023-09-26T00:49:24.289Z,99.99
2023-09-26T00:50:24.266Z,99.99
2023-09-26T00:51:24.241Z,99.99
2023-09-26T00:52:24.326Z,99.99
2023-09-26T00:53:24.240Z,99.99
2023-09-26T00:54:24.212Z,99.99
2023-09-26T00:55:24.243Z,99.99
2023-09-26T00:56:24.192Z,99.99
2023-09-26T00:57:24.204Z,99.99
2023-09-26T00:58:24.290Z,99.99
2023-09-26T00:59:24.176Z,99.99
2023-09-26T01:00:24.165Z,99.99
2023-09-26T01:01:24.227Z,99.99
2023-09-26T01:02:24.150Z,99.99
2023-09-26T01:03:24.162Z,99.99
2023-09-26T01:04:24.193Z,99.99
2023-09-26T01:05:24.091Z,99.99
2023-09-26T01:06:24.093Z,99.99
2023-09-26T01:07:24.169Z,99.99
2023-09-26T01:08:24.081Z,99.99
2023-09-26T01:09:24.049Z,99.99
2023-09-26T01:10:24.065Z,99.99
2023-09-26T01:11:24.021Z,99.99
2023-09-26T01:12:24.028Z,99.99
2023-09-26T01:13:24.063Z,99.99
2023-09-26T01:14:23.998Z,99.99
2023-09-26T01:15:23.987Z,99.99
2023-09-26T01:16:24.089Z,99.99
2023-09-26T01:17:24.009Z,99.99
2023-09-26T01:18:23.949Z,99.99
2023-09-26T01:19:24.012Z,99.99
2023-09-26T01:20:23.933Z,99.99
2023-09-26T01:21:23.958Z,99.99
2023-09-26T01:22:23.975Z,99.99
2023-09-26T01:23:23.913Z,99.99
2023-09-26T01:24:23.889Z,99.99
2023-09-26T01:25:23.960Z,99.99
2023-09-26T01:26:23.868Z,99.99
2023-09-26T01:27:24.138Z,99.99
2023-09-26T01:28:23.926Z,99.99
2023-09-26T01:29:23.844Z,99.99
2023-09-26T01:30:23.848Z,99.99
2023-09-26T01:31:23.880Z,99.99
2023-09-26T01:32:23.823Z,99.99
2023-09-26T01:33:23.835Z,99.99
2023-09-26T01:34:23.816Z,99.99
2023-09-26T01:35:23.779Z,99.99
2023-09-26T01:36:23.792Z,99.99
2023-09-26T01:37:23.837Z,99.99
2023-09-26T01:38:23.761Z,99.99
2023-09-26T01:39:23.753Z,99.99
2023-09-26T01:40:23.765Z,99.99
2023-09-26T01:41:23.715Z,99.99
2023-09-26T01:42:23.722Z,99.99
2023-09-26T01:43:23.756Z,99.99
2023-09-26T01:44:23.682Z,99.99
2023-09-26T01:45:23.669Z,99.99
2023-09-26T01:46:23.769Z,99.99
2023-09-26T01:47:23.721Z,99.99
2023-09-26T01:48:23.648Z,99.99
2023-09-26T01:49:23.711Z,99.99
2023-09-26T01:50:23.629Z,99.99
2023-09-26T01:51:23.606Z,99.99
2023-09-26T01:52:23.647Z,99.99
2023-09-26T01:53:23.619Z,99.99
2023-09-26T01:54:23.573Z,99.99
2023-09-26T01:55:23.616Z,99.99
2023-09-26T01:56:23.545Z,99.99
2023-09-26T01:57:23.551Z,99.99
2023-09-26T01:58:23.627Z,99.99
2023-09-26T01:59:23.520Z,99.99
2023-09-26T02:00:23.603Z,99.99
2023-09-26T02:01:23.572Z,99.99
2023-09-26T02:02:23.540Z,99.99
2023-09-26T02:03:24.537Z,99.99
2023-09-26T02:04:23.498Z,99.99
2023-09-26T02:05:23.465Z,99.99
2023-09-26T02:06:23.527Z,99.99
2023-09-26T02:07:23.462Z,99.99
2023-09-26T02:08:23.444Z,99.99
2023-09-26T02:09:23.429Z,99.99
2023-09-26T02:10:23.501Z,99.99
2023-09-26T02:11:23.408Z,99.99
2023-09-26T02:12:23.394Z,99.99
2023-09-26T02:13:23.470Z,99.99
2023-09-26T02:14:23.395Z,99.99
2023-09-26T02:15:23.351Z,99.99
2023-09-26T02:16:23.422Z,99.99
2023-09-26T02:17:23.335Z,99.99
2023-09-26T02:18:23.323Z,99.99
2023-09-26T02:19:23.333Z,99.99
2023-09-26T02:20:23.337Z,99.99
2023-09-26T02:21:23.298Z,99.99
2023-09-26T02:22:23.348Z,99.99
2023-09-26T02:23:23.257Z,99.99
2023-09-26T02:24:23.273Z,99.99
2023-09-26T02:25:23.298Z,99.99
2023-09-26T02:26:23.269Z,99.99
2023-09-26T02:27:23.227Z,99.99
2023-09-26T02:28:23.251Z,99.99
2023-09-26T02:29:23.220Z,99.99
2023-09-26T02:30:23.222Z,99.99
2023-09-26T02:31:23.248Z,99.99
2023-09-26T02:32:23.233Z,99.99
2023-09-26T02:33:23.190Z,99.99
2023-09-26T02:34:23.227Z,99.99
2023-09-26T02:35:23.152Z,99.99
2023-09-26T02:36:23.136Z,99.99
2023-09-26T02:37:23.163Z,99.99
2023-09-26T02:38:23.224Z,99.99
2023-09-26T02:39:23.100Z,99.99
2023-09-26T02:40:23.134Z,99.99
2023-09-26T02:41:23.087Z,99.99
2023-09-26T02:42:23.083Z,99.99
2023-09-26T02:43:23.064Z,99.99
2023-09-26T02:44:23.081Z,99.99
2023-09-26T02:45:23.040Z,99.99
2023-09-26T02:46:23.130Z,99.99
2023-09-26T02:47:23.059Z,99.99
2023-09-26T02:48:23.017Z,99.99
2023-09-26T02:49:23.126Z,99.99
2023-09-26T02:50:22.992Z,99.99
2023-09-26T02:51:22.967Z,99.99
2023-09-26T02:52:23.044Z,99.99
2023-09-26T02:53:22.988Z,99.99
2023-09-26T02:54:22.946Z,99.99
2023-09-26T02:55:22.974Z,99.99
2023-09-26T02:56:22.921Z,99.99
2023-09-26T02:57:22.916Z,99.99
2023-09-26T02:58:22.936Z,99.99
2023-09-26T02:59:22.903Z,99.99
2023-09-26T03:00:22.914Z,99.99
2023-09-26T03:01:22.962Z,99.99
2023-09-26T03:02:22.987Z,99.99
2023-09-26T03:03:22.858Z,99.99
2023-09-26T03:04:22.880Z,99.99
2023-09-26T03:05:22.849Z,99.99
2023-09-26T03:06:22.829Z,99.99
2023-09-26T03:07:22.874Z,99.99
2023-09-26T03:08:22.799Z,99.99
2023-09-26T03:09:22.780Z,99.99
2023-09-26T03:10:22.830Z,99.99
2023-09-26T03:11:22.776Z,99.99
2023-09-26T03:12:22.751Z,99.99
2023-09-26T03:13:22.792Z,99.99
2023-09-26T03:14:22.749Z,99.99
2023-09-26T03:15:22.760Z,99.99
2023-09-26T03:16:22.828Z,99.99
2023-09-26T03:17:22.702Z,99.99
2023-09-26T03:18:22.686Z,99.99
2023-09-26T03:19:22.701Z,99.99
2023-09-26T03:20:22.686Z,99.99
2023-09-26T03:21:22.670Z,99.99
2023-09-26T03:22:22.799Z,99.99
2023-09-26T03:23:22.715Z,99.99
2023-09-26T03:24:22.625Z,99.99
2023-09-26T03:25:22.686Z,99.99
2023-09-26T03:26:22.612Z,99.99
2023-09-26T03:27:22.594Z,99.99
2023-09-26T03:28:22.633Z,99.99
2023-09-26T03:29:22.580Z,99.99
2023-09-26T03:30:22.600Z,99.99
2023-09-26T03:31:22.638Z,99.99
2023-09-26T03:32:22.615Z,99.99
2023-09-26T03:33:22.529Z,99.99
2023-09-26T03:34:22.573Z,99.99
2023-09-26T03:35:22.544Z,99.99
2023-09-26T03:36:22.528Z,99.99
2023-09-26T03:37:22.530Z,99.99
2023-09-26T03:38:22.526Z,99.99
2023-09-26T03:39:22.484Z,99.99
2023-09-26T03:40:22.700Z,99.99
2023-09-26T03:41:22.466Z,99.99
2023-09-26T03:42:22.445Z,99.99
2023-09-26T03:43:22.463Z,99.99
2023-09-26T03:44:22.428Z,99.99
2023-09-26T03:45:22.414Z,99.99
2023-09-26T03:46:22.463Z,99.99
2023-09-26T03:47:22.452Z,99.99
2023-09-26T03:48:22.452Z,99.99
2023-09-26T03:49:22.383Z,99.99
2023-09-26T03:50:22.370Z,99.99
2023-09-26T03:51:22.358Z,99.99
2023-09-26T03:52:22.415Z,99.99
2023-09-26T03:53:22.332Z,99.99
2023-09-26T03:54:22.330Z,99.99
2023-09-26T03:55:22.384Z,99.99
2023-09-26T03:56:22.309Z,99.99
2023-09-26T03:57:22.289Z,99.99
2023-09-26T03:58:22.341Z,99.99
2023-09-26T03:59:22.272Z,99.99
2023-09-26T04:00:22.250Z,99.99
2023-09-26T04:01:22.337Z,99.99
2023-09-26T04:02:22.294Z,99.99
2023-09-26T04:03:23.401Z,99.99
2023-09-26T04:04:22.256Z,99.99
2023-09-26T04:05:22.192Z,99.99
2023-09-26T04:06:22.240Z,99.99
2023-09-26T04:07:22.300Z,99.99
2023-09-26T04:08:22.172Z,99.99
2023-09-26T04:09:22.191Z,99.99
2023-09-26T04:10:22.211Z,99.99
2023-09-26T04:11:22.152Z,99.99
2023-09-26T04:12:22.137Z,99.99
2023-09-26T04:13:22.144Z,99.99
2023-09-26T04:14:22.121Z,99.99
2023-09-26T04:15:22.121Z,99.99
2023-09-26T04:16:22.126Z,99.99
2023-09-26T04:17:22.076Z,99.99
2023-09-26T04:18:22.062Z,99.99
2023-09-26T04:19:22.203Z,99.99
2023-09-26T04:20:36.579Z,99.99
2023-09-26T04:21:22.060Z,99.99
2023-09-26T04:22:22.222Z,99.99
2023-09-26T04:23:22.033Z,99.99
2023-09-26T04:24:22.011Z,99.99
2023-09-26T04:25:22.107Z,99.99
2023-09-26T04:26:21.988Z,99.99
2023-09-26T04:27:22.002Z,99.99
2023-09-26T04:28:22.019Z,99.99
2023-09-26T04:29:21.945Z,99.99
2023-09-26T04:30:21.957Z,99.99
2023-09-26T04:31:22.017Z,99.99
2023-09-26T04:32:21.934Z,99.99
2023-09-26T04:33:21.910Z,99.99
2023-09-26T04:34:21.936Z,99.99
2023-09-26T04:35:21.909Z,99.99
2023-09-26T04:36:21.895Z,99.99
2023-09-26T04:37:21.960Z,99.99
2023-09-26T04:38:21.925Z,99.99
2023-09-26T04:39:21.868Z,99.99
2023-09-26T04:40:21.963Z,99.99
2023-09-26T04:41:21.860Z,99.99
2023-09-26T04:42:21.811Z,99.99
2023-09-26T04:43:21.860Z,99.99
2023-09-26T04:44:21.797Z,99.99
2023-09-26T04:45:21.812Z,99.99
2023-09-26T04:46:21.921Z,99.99
2023-09-26T04:47:21.849Z,99.99
2023-09-26T04:48:21.759Z,99.99
2023-09-26T04:49:21.780Z,99.99
2023-09-26T04:50:21.736Z,99.99
2023-09-26T04:51:21.801Z,99.99
2023-09-26T04:52:21.691Z,99.99
2023-09-26T04:53:21.709Z,99.99
2023-09-26T04:54:21.698Z,99.99
2023-09-26T04:55:21.765Z,99.99
2023-09-26T04:56:21.702Z,99.99
2023-09-26T04:57:21.612Z,99.99
2023-09-26T04:58:21.737Z,99.99
2023-09-26T04:59:21.659Z,99.99
2023-09-26T05:00:21.616Z,99.99
2023-09-26T05:01:21.654Z,99.99
2023-09-26T05:02:21.583Z,99.99
2023-09-26T05:03:21.655Z,99.99
2023-09-26T05:04:21.629Z,99.99
2023-09-26T05:05:21.529Z,99.99
2023-09-26T05:06:21.511Z,99.99
2023-09-26T05:07:21.550Z,99.99
2023-09-26T05:08:21.489Z,99.99
2023-09-26T05:09:21.481Z,99.99
2023-09-26T05:10:21.523Z,99.99
2023-09-26T05:11:21.471Z,99.99
2023-09-26T05:12:21.556Z,99.99
2023-09-26T05:13:21.476Z,99.99
2023-09-26T05:14:21.428Z,99.99
2023-09-26T05:15:21.428Z,99.99
2023-09-26T05:16:21.557Z,99.99
2023-09-26T05:17:22.145Z,99.99
2023-09-26T05:18:21.386Z,99.99
2023-09-26T05:19:21.412Z,99.99
2023-09-26T05:20:21.383Z,99.99
2023-09-26T05:21:21.360Z,99.99
2023-09-26T05:22:21.468Z,99.99
2023-09-26T05:23:21.338Z,99.99
2023-09-26T05:24:21.325Z,99.99
2023-09-26T05:25:21.382Z,99.99
2023-09-26T05:26:21.321Z,99.99
2023-09-26T05:27:21.417Z,99.99
2023-09-26T05:28:21.326Z,99.99
2023-09-26T05:29:21.279Z,99.99
2023-09-26T05:30:21.266Z,99.99
2023-09-26T05:31:21.371Z,99.99
2023-09-26T05:32:21.234Z,99.99
2023-09-26T05:33:21.274Z,99.99
2023-09-26T05:34:21.283Z,99.99
2023-09-26T05:35:21.244Z,99.99
2023-09-26T05:36:21.210Z,99.99
2023-09-26T05:37:21.247Z,99.99
2023-09-26T05:38:21.197Z,99.99
2023-09-26T05:39:21.208Z,99.99
2023-09-26T05:40:21.227Z,99.99
2023-09-26T05:41:21.312Z,99.99
2023-09-26T05:42:21.147Z,99.99
2023-09-26T05:43:21.234Z,99.99
2023-09-26T05:44:21.227Z,99.99
2023-09-26T05:45:21.098Z,99.99
2023-09-26T05:46:21.274Z,99.99
2023-09-26T05:47:22.653Z,99.99
2023-09-26T05:48:21.151Z,99.99
2023-09-26T05:49:21.116Z,99.99
2023-09-26T05:50:21.060Z,99.99
2023-09-26T05:51:21.055Z,99.99
2023-09-26T05:52:21.150Z,99.99
2023-09-26T05:53:21.029Z,99.99
2023-09-26T05:54:31.329Z,99.99
2023-09-26T05:55:21.100Z,99.99
2023-09-26T05:56:21.054Z,99.99
2023-09-26T05:57:20.988Z,99.99
2023-09-26T05:58:21.036Z,99.99
2023-09-26T05:59:20.975Z,99.99
2023-09-26T06:00:21.068Z,99.99
2023-09-26T06:01:21.008Z,99.99
2023-09-26T06:02:21.101Z,99.99
2023-09-26T06:03:20.988Z,99.99
2023-09-26T06:04:20.998Z,99.99
2023-09-26T06:05:21.058Z,99.99
2023-09-26T06:06:20.913Z,99.99
2023-09-26T06:07:20.936Z,99.99
2023-09-26T06:08:20.878Z,99.99
2023-09-26T06:09:20.869Z,99.99
2023-09-26T06:10:20.875Z,99.99
2023-09-26T06:11:20.840Z,99.99
2023-09-26T06:12:20.824Z,99.99
2023-09-26T06:13:20.861Z,99.99
2023-09-26T06:14:20.790Z,99.99
2023-09-26T06:15:20.828Z,99.99
2023-09-26T06:16:20.905Z,99.90
2023-09-26T06:17:20.831Z,99.90
2023-09-26T06:18:20.833Z,99.99
2023-09-26T06:19:20.818Z,99.90
2023-09-26T06:20:20.774Z,99.90
2023-09-26T06:21:20.767Z,99.75
2023-09-26T06:22:20.768Z,99.75
2023-09-26T06:23:20.785Z,99.75
2023-09-26T06:24:20.707Z,99.54
2023-09-26T06:25:21.392Z,99.44
2023-09-26T06:26:20.793Z,99.44
2023-09-26T06:27:20.695Z,99.04
2023-09-26T06:28:20.730Z,99.04
2023-09-26T06:29:20.648Z,99.14
2023-09-26T06:30:20.662Z,99.24
2023-09-26T06:31:20.737Z,98.93
2023-09-26T06:32:20.676Z,98.89
2023-09-26T06:33:20.768Z,98.89
2023-09-26T06:34:20.585Z,98.99
2023-09-26T06:35:20.576Z,98.89
2023-09-26T06:36:20.575Z,98.89
2023-09-26T06:37:20.842Z,98.89
2023-09-26T06:38:20.547Z,98.89
2023-09-26T06:39:20.580Z,98.89
2023-09-26T06:40:20.592Z,98.68
2023-09-26T06:41:20.547Z,98.54
2023-09-26T06:42:20.657Z,98.54
2023-09-26T06:43:20.580Z,98.54
2023-09-26T06:44:20.487Z,98.43
2023-09-26T06:45:20.472Z,98.18
2023-09-26T06:46:20.545Z,97.98
2023-09-26T06:47:20.512Z,98.08
2023-09-26T06:48:20.474Z,98.18
2023-09-26T06:49:20.625Z,98.14
2023-09-26T06:50:20.411Z,98.24
2023-09-26T06:51:20.417Z,98.65
2023-09-26T06:52:20.398Z,98.54
2023-09-26T06:53:20.416Z,97.99
2023-09-26T06:54:20.379Z,97.99
2023-09-26T06:55:20.426Z,97.07
2023-09-26T06:56:20.351Z,95.81
2023-09-26T06:57:20.347Z,95.50
2023-09-26T06:58:20.434Z,94.95
2023-09-26T06:59:20.334Z,94.13
2023-09-26T07:00:20.372Z,93.79
2023-09-26T07:01:20.366Z,93.68
2023-09-26T07:02:20.336Z,93.64
2023-09-26T07:03:21.168Z,93.03
2023-09-26T07:04:20.358Z,92.52
2023-09-26T07:05:20.275Z,91.47
2023-09-26T07:06:20.270Z,91.56
2023-09-26T07:07:20.301Z,91.16
2023-09-26T07:08:20.382Z,91.22
2023-09-26T07:09:20.237Z,90.81
2023-09-26T07:10:20.248Z,90.26
2023-09-26T07:11:20.262Z,89.35
2023-09-26T07:12:20.311Z,87.93
2023-09-26T07:13:44.383Z,87.99
2023-09-26T07:14:20.311Z,87.99
2023-09-26T07:15:20.178Z,86.68
2023-09-26T07:16:20.244Z,86.43
2023-09-26T07:17:20.235Z,87.24
2023-09-26T07:18:20.200Z,86.13
2023-09-26T07:19:20.161Z,85.27
2023-09-26T07:20:20.127Z,86.29
2023-09-26T07:21:20.089Z,86.15
2023-09-26T07:22:20.106Z,85.24
2023-09-26T07:23:20.098Z,84.22
2023-09-26T07:24:21.628Z,84.22
2023-09-26T07:25:20.098Z,84.63
2023-09-26T07:26:20.047Z,85.13
2023-09-26T07:27:20.052Z,84.63
2023-09-26T07:28:20.036Z,84.22
2023-09-26T07:29:20.121Z,85.03
2023-09-26T07:30:19.998Z,83.92
2023-09-26T07:31:20.216Z,85.30
2023-09-26T07:32:19.976Z,84.89
2023-09-26T07:33:19.970Z,84.89
2023-09-26T07:34:19.986Z,84.59
2023-09-26T07:35:20.003Z,83.47
2023-09-26T07:36:19.933Z,83.47
2023-09-26T07:37:19.944Z,83.33
2023-09-26T07:38:19.909Z,83.23
2023-09-26T07:39:19.977Z,82.93
2023-09-26T07:40:20.027Z,83.03
2023-09-26T07:41:19.923Z,83.23
2023-09-26T07:42:19.882Z,83.44
2023-09-26T07:43:19.943Z,82.99
2023-09-26T07:44:19.870Z,83.40
2023-09-26T07:45:19.830Z,83.29
2023-09-26T07:46:19.924Z,82.59
2023-09-26T07:47:19.985Z,81.27
2023-09-26T07:48:19.799Z,81.94
2023-09-26T07:49:19.823Z,81.13
2023-09-26T07:50:19.808Z,81.74
2023-09-26T07:51:19.802Z,81.54
2023-09-26T07:52:19.923Z,82.95
2023-09-26T07:53:19.840Z,83.56
2023-09-26T07:54:19.754Z,83.56
2023-09-26T07:55:19.767Z,82.65
2023-09-26T07:56:19.720Z,82.31
2023-09-26T07:57:19.723Z,82.01
2023-09-26T07:58:19.719Z,81.70
2023-09-26T07:59:19.687Z,81.96
2023-09-26T08:00:19.695Z,83.28
2023-09-26T08:01:19.725Z,81.67
2023-09-26T08:02:19.703Z,81.87
2023-09-26T08:03:19.703Z,80.85
2023-09-26T08:04:19.840Z,80.85
2023-09-26T08:05:19.655Z,81.26
2023-09-26T08:06:19.641Z,80.15
2023-09-26T08:07:19.741Z,80.05
2023-09-26T08:08:19.621Z,80.25
2023-09-26T08:09:19.633Z,79.91
2023-09-26T08:10:19.709Z,79.61
2023-09-26T08:11:19.565Z,79.50
2023-09-26T08:12:19.562Z,80.11
2023-09-26T08:13:19.542Z,78.70
2023-09-26T08:14:19.544Z,79.21
2023-09-26T08:15:19.540Z,80.11
2023-09-26T08:16:19.621Z,79.10
2023-09-26T08:17:19.527Z,80.07
2023-09-26T08:18:19.517Z,80.18
2023-09-26T08:19:19.537Z,79.87
2023-09-26T08:20:19.492Z,79.83
2023-09-26T08:21:19.457Z,80.64
2023-09-26T08:22:19.500Z,79.53
2023-09-26T08:23:19.433Z,79.83
2023-09-26T08:24:19.438Z,80.20
2023-09-26T08:25:19.479Z,79.19
2023-09-26T08:26:19.433Z,78.59
2023-09-26T08:27:19.394Z,78.39
2023-09-26T08:28:19.393Z,77.84
2023-09-26T08:29:19.376Z,78.65
2023-09-26T08:30:19.373Z,75.93
2023-09-26T08:31:19.641Z,77.44
2023-09-26T08:32:19.661Z,79.05
2023-09-26T08:33:19.382Z,78.31
2023-09-26T08:34:19.376Z,78.11
2023-09-26T08:35:19.656Z,78.31
2023-09-26T08:36:19.325Z,79.72
2023-09-26T08:37:19.320Z,78.88
2023-09-26T08:38:19.309Z,77.37
2023-09-26T08:39:19.266Z,76.16
2023-09-26T08:40:19.283Z,75.96
2023-09-26T08:41:19.485Z,76.26
2023-09-26T08:42:19.252Z,76.26
2023-09-26T08:43:19.287Z,74.92
2023-09-26T08:44:19.335Z,74.72
2023-09-26T08:45:19.231Z,73.61
2023-09-26T08:46:19.261Z,74.11
2023-09-26T08:47:19.326Z,74.62
2023-09-26T08:48:19.207Z,74.52
2023-09-26T08:49:19.332Z,74.92
2023-09-26T08:50:19.217Z,74.11
2023-09-26T08:51:19.196Z,73.41
2023-09-26T08:52:19.166Z,74.01
2023-09-26T08:53:19.164Z,74.21
2023-09-26T08:54:19.138Z,74.92
2023-09-26T08:55:19.133Z,75.35
2023-09-26T08:56:19.100Z,75.46
2023-09-26T08:57:19.086Z,74.45
2023-09-26T08:58:19.113Z,75.05
2023-09-26T08:59:19.186Z,74.65
2023-09-26T09:00:19.058Z,74.21
2023-09-26T09:01:19.120Z,76.63
2023-09-26T09:02:19.067Z,75.02
2023-09-26T09:03:19.068Z,74.78
2023-09-26T09:04:19.143Z,72.77
2023-09-26T09:05:19.003Z,74.08
2023-09-26T09:06:19.019Z,74.48
2023-09-26T09:07:19.007Z,74.48
2023-09-26T09:08:18.978Z,73.94
2023-09-26T09:09:19.000Z,73.54
2023-09-26T09:10:19.005Z,71.16
2023-09-26T09:11:18.947Z,72.24
2023-09-26T09:12:18.939Z,72.53
2023-09-26T09:13:18.988Z,73.84
2023-09-26T09:14:18.929Z,73.84
2023-09-26T09:15:18.920Z,72.71
2023-09-26T09:16:19.083Z,72.90
2023-09-26T09:17:18.948Z,72.33
2023-09-26T09:18:18.889Z,71.73
2023-09-26T09:19:18.933Z,72.10
2023-09-26T09:20:18.889Z,72.50
2023-09-26T09:21:18.833Z,73.00
2023-09-26T09:22:18.927Z,72.80
2023-09-26T09:23:18.834Z,72.71
2023-09-26T09:24:18.832Z,71.23
2023-09-26T09:25:18.835Z,71.00
2023-09-26T09:26:18.805Z,70.79
2023-09-26T09:27:18.770Z,70.89
2023-09-26T09:28:18.822Z,71.00
2023-09-26T09:29:18.814Z,71.86
2023-09-26T09:30:18.741Z,70.46
2023-09-26T09:31:18.848Z,70.96
2023-09-26T09:32:18.741Z,72.06
2023-09-26T09:33:18.740Z,71.77
2023-09-26T09:34:18.714Z,71.83
2023-09-26T09:35:18.718Z,71.33
2023-09-26T09:36:18.704Z,72.24
2023-09-26T09:37:18.715Z,72.90
2023-09-26T09:38:18.696Z,71.20
2023-09-26T09:39:18.661Z,70.56
2023-09-26T09:40:18.695Z,70.06
2023-09-26T09:41:18.635Z,69.82
2023-09-26T09:42:18.638Z,68.42
2023-09-26T09:43:18.669Z,67.79
2023-09-26T09:44:18.665Z,66.69
2023-09-26T09:45:18.662Z,67.13
2023-09-26T09:46:18.772Z,64.99
2023-09-26T09:47:18.653Z,65.36
2023-09-26T09:48:18.613Z,64.40
2023-09-26T09:49:18.705Z,63.17
2023-09-26T09:50:18.697Z,61.74
2023-09-26T09:51:18.575Z,60.69
2023-09-26T09:52:18.573Z,59.66
2023-09-26T09:53:18.509Z,58.61
2023-09-26T09:54:18.607Z,57.71
2023-09-26T09:55:18.650Z,57.49
2023-09-26T09:56:18.481Z,56.82
2023-09-26T09:57:18.600Z,56.72
2023-09-26T09:58:18.537Z,58.09
2023-09-26T09:59:18.626Z,56.62
2023-09-26T10:00:18.451Z,57.59
2023-09-26T10:01:18.526Z,56.37
2023-09-26T10:02:18.535Z,55.65
2023-09-26T10:03:18.468Z,55.94
2023-09-26T10:04:18.455Z,55.65
2023-09-26T10:05:18.395Z,54.53
2023-09-26T10:06:18.389Z,53.80
2023-09-26T10:07:18.358Z,53.51
2023-09-26T10:08:18.343Z,53.68
2023-09-26T10:09:18.341Z,52.09
2023-09-26T10:10:18.401Z,53.48
2023-09-26T10:11:18.454Z,51.94
2023-09-26T10:12:18.308Z,51.92
2023-09-26T10:14:18.290Z,51.42
2023-09-26T10:15:18.347Z,51.82
2023-09-26T10:16:18.326Z,52.31
2023-09-26T10:17:18.365Z,51.75
2023-09-26T10:18:18.248Z,51.70
2023-09-26T10:19:18.271Z,49.89
2023-09-26T10:20:44.693Z,50.81
2023-09-26T10:21:18.248Z,51.28
2023-09-26T10:22:18.268Z,49.77
2023-09-26T10:23:18.205Z,50.21
2023-09-26T10:24:18.181Z,48.11
2023-09-26T10:25:18.245Z,47.81
2023-09-26T10:26:18.164Z,47.30
2023-09-26T10:27:27.794Z,47.20
2023-09-26T10:28:18.250Z,46.39
2023-09-26T10:29:18.155Z,47.75
2023-09-26T10:30:18.130Z,47.87
2023-09-26T10:31:18.191Z,47.77
2023-09-26T10:32:18.109Z,45.50
2023-09-26T10:33:36.621Z,46.96
2023-09-26T10:34:18.132Z,45.50
2023-09-26T11:15:19.703Z,48.58
2023-09-26T11:15:25.472Z,48.39
2023-09-26T11:16:25.462Z,47.62
2023-09-26T11:17:25.615Z,48.55
2023-09-26T11:18:25.631Z,49.69
2023-09-26T11:19:25.508Z,51.12
2023-09-26T11:20:25.455Z,53.26
2023-09-26T11:21:30.215Z,53.68
2023-09-26T11:22:25.449Z,56.29
2023-09-26T11:23:25.381Z,55.10
2023-09-26T11:24:25.394Z,55.02
2023-09-26T11:25:25.484Z,54.95
2023-09-26T11:26:25.399Z,54.60
2023-09-26T11:27:25.483Z,55.40
2023-09-26T11:28:25.385Z,55.93
2023-09-26T11:29:25.330Z,56.02
2023-09-26T11:30:25.356Z,54.53
2023-09-26T11:31:25.574Z,56.62
2023-09-26T11:32:25.423Z,55.35
2023-09-26T11:33:25.461Z,56.87
2023-09-26T11:34:25.412Z,58.76
2023-09-26T11:35:25.295Z,58.14
2023-09-26T11:36:25.276Z,58.64
2023-09-26T11:37:25.574Z,56.65
2023-09-26T11:38:25.247Z,56.95
2023-09-26T11:39:25.224Z,56.27
2023-09-26T11:40:25.573Z,56.27
2023-09-26T11:41:35.524Z,57.07
2023-09-26T11:42:25.324Z,59.36
2023-09-26T11:43:25.190Z,58.67
2023-09-26T11:44:25.184Z,59.56
2023-09-26T11:45:25.219Z,59.17
2023-09-26T11:46:25.204Z,58.54
2023-09-26T11:47:25.226Z,58.74
2023-09-26T11:48:25.161Z,58.81
2023-09-26T11:49:25.131Z,58.24
2023-09-26T11:50:25.145Z,58.44
2023-09-26T11:51:25.118Z,57.35
2023-09-26T11:52:25.130Z,59.04
2023-09-26T11:53:25.091Z,59.23
2023-09-26T11:54:25.085Z,57.94
2023-09-26T11:55:25.093Z,57.64
2023-09-26T11:56:25.097Z,57.05
2023-09-26T11:57:25.029Z,58.84
2023-09-26T11:58:25.102Z,59.27
2023-09-26T11:59:25.175Z,59.27
2023-09-26T12:00:25.053Z,58.57
2023-09-26T12:01:25.034Z,59.66
2023-09-26T12:02:25.102Z,58.44
2023-09-26T12:03:25.023Z,57.64
2023-09-26T12:04:25.006Z,57.45
2023-09-26T12:05:25.030Z,60.21
2023-09-26T12:06:24.966Z,57.71
2023-09-26T12:07:24.945Z,59.21
2023-09-26T12:08:24.938Z,57.49
2023-09-26T12:09:25.058Z,57.71
2023-09-26T12:10:24.921Z,57.19
2023-09-26T12:11:24.927Z,56.79
2023-09-26T12:12:24.902Z,59.25
2023-09-26T12:13:24.899Z,57.96
2023-09-26T12:14:24.877Z,55.97
2023-09-26T12:15:24.912Z,53.78
2023-09-26T12:16:24.956Z,53.88
2023-09-26T12:17:25.028Z,54.38
2023-09-26T12:18:24.920Z,56.07
2023-09-26T12:19:24.839Z,55.25
2023-09-26T12:20:24.833Z,55.74
2023-09-26T12:21:24.801Z,56.59
2023-09-26T12:22:24.835Z,51.50
2023-09-26T12:23:25.079Z,50.58
2023-09-26T12:24:24.788Z,51.07
2023-09-26T12:25:24.824Z,51.25
2023-09-26T12:26:24.774Z,51.50
2023-09-26T12:27:24.753Z,48.93
2023-09-26T12:28:24.770Z,47.99
2023-09-26T12:29:24.741Z,47.77
2023-09-26T12:30:24.723Z,47.33
2023-09-26T12:31:25.041Z,46.42
2023-09-26T12:32:24.811Z,45.78
2023-09-26T12:33:24.814Z,44.17
2023-09-26T12:34:24.691Z,42.86
2023-09-26T12:35:24.688Z,43.14
2023-09-26T12:36:25.000Z,41.74
2023-09-26T12:37:24.671Z,43.37
2023-09-26T12:38:24.643Z,40.70
2023-09-26T12:39:24.630Z,40.53
2023-09-26T12:40:24.623Z,40.25
2023-09-26T12:41:24.609Z,42.19
2023-09-26T12:42:24.618Z,41.80
2023-09-26T12:43:24.608Z,42.27
2023-09-26T12:44:24.620Z,42.05
2023-09-26T12:45:24.556Z,40.00
2023-09-26T12:46:24.589Z,39.27
2023-09-26T12:47:24.623Z,38.98
2023-09-26T12:48:24.561Z,40.14
2023-09-26T12:49:24.579Z,38.47
2023-09-26T12:50:24.524Z,38.98
2023-09-26T12:51:24.674Z,38.68
2023-09-26T12:52:24.542Z,38.86
2023-09-26T12:53:24.492Z,38.18
2023-09-26T12:54:24.497Z,37.77
2023-09-26T12:55:24.494Z,38.14
2023-09-26T12:56:24.486Z,38.57
2023-09-26T12:57:24.495Z,38.29
2023-09-26T12:58:26.874Z,38.78
2023-09-26T12:59:24.450Z,37.73
2023-09-26T13:00:24.502Z,39.53
2023-09-26T13:01:24.629Z,40.01
2023-09-26T13:02:24.600Z,40.13
2023-09-26T13:03:24.524Z,42.19
2023-09-26T13:04:24.523Z,40.17
2023-09-26T13:05:24.415Z,42.65
2023-09-26T13:06:24.380Z,43.33
2023-09-26T13:07:24.371Z,43.46
2023-09-26T13:08:24.388Z,44.38
2023-09-26T13:09:24.355Z,45.09
2023-09-26T13:10:24.372Z,44.72
2023-09-26T13:11:24.418Z,45.24
2023-09-26T13:12:24.416Z,45.08
2023-09-26T13:13:24.320Z,47.44
2023-09-26T13:14:24.362Z,47.52
2023-09-26T13:15:24.345Z,49.17
2023-09-26T13:16:24.427Z,50.68
2023-09-26T13:17:24.289Z,50.01
2023-09-26T13:18:24.281Z,53.26
2023-09-26T13:19:24.328Z,51.97
2023-09-26T13:20:24.280Z,51.37
2023-09-26T13:21:24.266Z,51.77
2023-09-26T13:22:24.291Z,51.67
2023-09-26T13:23:24.249Z,50.81
2023-09-26T13:24:24.336Z,51.57
2023-09-26T13:25:24.226Z,51.57
2023-09-26T13:26:24.246Z,51.07
2023-09-26T13:27:24.203Z,51.60
2023-09-26T13:28:24.206Z,51.20
2023-09-26T13:29:24.208Z,52.66
2023-09-26T13:30:24.180Z,52.26
2023-09-26T13:31:24.175Z,50.98
2023-09-26T13:32:24.403Z,50.51